Time;durP1;ratioP1;P1;durP2;ratioP2;P2;SDS_P1;SDS_P2;PMS_P1;PMS_P2;Temp;Humidity;BMP_temperature;BMP_pressure;BME280_temperature;BME280_humidity;BME280_pressure;Samples;Min_cycle;Max_cycle;Signal;HPM_P1;HPM_P2
2023/05/04 00:00:46;;;;;;;13.40;11.70;;;;;;;15.00;71.81;99611.81;4329487;33;33967;-84
2023/05/04 00:03:15;;;;;;;17.37;11.35;;;;;;;14.82;72.62;99613.53;4343561;33;33545;-83
2023/05/04 00:05:42;;;;;;;15.73;11.52;;;;;;;14.69;73.53;99603.06;4343593;33;33178;-81
2023/05/04 00:08:10;;;;;;;15.20;11.88;;;;;;;14.75;73.25;99605.69;4333045;33;34542;-81
2023/05/04 00:10:38;;;;;;;16.80;11.98;;;;;;;14.42;74.93;99606.41;4353291;32;34240;-81
2023/05/04 00:13:05;;;;;;;16.42;11.88;;;;;;;14.80;73.54;99603.97;4347729;32;33741;-82
2023/05/04 00:15:33;;;;;;;15.55;12.73;;;;;;;14.58;74.35;99609.12;4344326;33;32141;-80
2023/05/04 00:18:00;;;;;;;14.10;11.95;;;;;;;14.35;75.79;99605.50;4343553;33;33930;-83
2023/05/04 00:20:28;;;;;;;16.77;12.20;;;;;;;14.73;73.89;99602.19;4344114;33;34786;-84
2023/05/04 00:22:55;;;;;;;14.48;11.98;;;;;;;14.45;74.82;99602.06;4344546;33;33922;-82
2023/05/04 00:25:23;;;;;;;16.37;11.75;;;;;;;14.81;73.03;99590.03;4342524;33;33595;-84
2023/05/04 00:27:52;;;;;;;16.05;12.13;;;;;;;14.93;72.54;99594.44;4329785;33;33913;-84
2023/05/04 00:30:19;;;;;;;14.30;11.25;;;;;;;14.73;73.12;99589.16;4341438;33;35727;-81
2023/05/04 00:32:47;;;;;;;15.77;12.13;;;;;;;14.78;72.88;99590.06;4343665;33;35079;-85
2023/05/04 00:35:15;;;;;;;14.77;11.10;;;;;;;14.84;72.89;99590.91;4341969;33;33488;-81
2023/05/04 00:37:44;;;;;;;16.33;12.20;;;;;;;14.90;72.61;99592.69;4342982;33;33942;-83
2023/05/04 00:40:11;;;;;;;15.60;10.88;;;;;;;14.94;72.23;99586.59;4343056;33;34656;-82
2023/05/04 00:42:39;;;;;;;14.00;11.10;;;;;;;14.64;73.36;99594.34;4342315;33;33637;-81
2023/05/04 00:45:06;;;;;;;14.75;10.77;;;;;;;14.99;71.88;99587.47;4330313;33;33523;-85
2023/05/04 00:47:34;;;;;;;14.27;10.85;;;;;;;15.22;70.68;99587.47;4341697;33;34784;-84
2023/05/04 00:50:03;;;;;;;15.35;11.30;;;;;;;15.30;70.37;99590.09;4329894;33;34137;-83
2023/05/04 00:52:31;;;;;;;15.07;11.05;;;;;;;15.03;71.07;99586.59;4329679;33;34670;-86
2023/05/04 00:55:00;;;;;;;14.52;10.48;;;;;;;14.92;71.69;99590.94;4323447;33;32683;-81
2023/05/04 00:57:27;;;;;;;13.50;10.63;;;;;;;14.99;71.56;99595.28;4343125;33;33441;-80
2023/05/04 00:59:55;;;;;;;14.00;10.40;;;;;;;15.09;70.93;99584.00;4343806;33;34186;-84
2023/05/04 01:02:23;;;;;;;13.43;10.65;;;;;;;15.25;70.22;99589.25;4342699;33;33733;-86
2023/05/04 01:04:52;;;;;;;16.08;11.07;;;;;;;14.93;71.34;99586.59;4342146;32;33471;-80
2023/05/04 01:08:05;;;;;;;12.90;11.48;;;;;;;14.83;71.65;99589.19;4341922;32;34725;-81
2023/05/04 01:10:53;;;;;;;14.38;10.18;;;;;;;14.90;71.67;99583.97;4330823;32;34218;-81
2023/05/04 01:13:21;;;;;;;11.93;8.82;;;;;;;15.19;70.22;99584.91;4331001;33;33679;-79
2023/05/04 01:15:48;;;;;;;13.45;10.60;;;;;;;15.32;69.56;99585.75;4344267;32;34323;-85
2023/05/04 01:18:16;;;;;;;12.65;9.98;;;;;;;15.08;70.25;99584.00;4334604;32;33130;-79
2023/05/04 01:20:43;;;;;;;11.68;9.60;;;;;;;14.89;71.04;99588.34;4344667;33;34291;-80
2023/05/04 01:23:11;;;;;;;11.75;9.45;;;;;;;15.18;69.96;99592.72;4343449;32;34842;-80
2023/05/04 01:25:49;;;;;;;15.30;10.52;;;;;;;15.30;69.28;99590.09;4344594;33;33919;-82
2023/05/04 01:28:25;;;;;;;11.98;8.95;;;;;;;15.23;69.69;99591.00;4331550;33;34174;-80
2023/05/04 01:30:55;;;;;;;11.52;9.13;;;;;;;15.32;69.11;99591.00;4344080;33;33991;-81
2023/05/04 01:33:23;;;;;;;12.80;9.45;;;;;;;15.21;69.31;99582.28;4330989;33;33858;-84
2023/05/04 01:35:50;;;;;;;11.75;9.13;;;;;;;15.68;67.50;99578.78;4330973;33;33911;-81
2023/05/04 01:38:17;;;;;;;11.93;8.38;;;;;;;15.60;67.54;99580.53;4331689;33;33916;-81
2023/05/04 01:40:45;;;;;;;10.80;7.90;;;;;;;15.79;66.83;99585.75;4345261;33;33424;-81
2023/05/04 01:43:13;;;;;;;10.23;8.60;;;;;;;15.81;66.32;99589.25;4344831;33;34330;-81
2023/05/04 01:45:40;;;;;;;10.32;8.05;;;;;;;15.89;65.71;99580.53;4331575;33;34307;-81
2023/05/04 01:48:08;;;;;;;10.77;8.60;;;;;;;15.95;65.47;99581.37;4344849;33;34166;-80
2023/05/04 01:50:35;;;;;;;11.60;8.57;;;;;;;15.95;64.83;99578.78;4343740;33;34602;-80
2023/05/04 01:53:03;;;;;;;10.77;8.20;;;;;;;15.95;64.82;99580.50;4343383;33;33925;-85
2023/05/04 01:55:31;;;;;;;12.02;8.90;;;;;;;16.01;64.66;99576.13;4344974;33;32669;-83
2023/05/04 01:57:59;;;;;;;10.27;7.95;;;;;;;15.87;65.04;99579.63;4330744;33;33221;-82
2023/05/04 02:00:27;;;;;;;10.63;7.93;;;;;;;15.93;64.43;99572.66;4331720;32;32789;-85
2023/05/04 02:02:54;;;;;;;11.38;8.25;;;;;;;15.92;64.35;99570.94;4345469;32;33874;-80
2023/05/04 02:05:22;;;;;;;11.32;8.27;;;;;;;15.99;63.38;99580.50;4345459;33;33349;-80
2023/05/04 02:07:50;;;;;;;13.00;8.32;;;;;;;15.93;63.25;99572.66;4345575;33;34650;-83
2023/05/04 02:10:20;;;;;;;12.23;8.63;;;;;;;15.62;63.90;99576.19;4344852;33;35476;-80
2023/05/04 02:12:47;;;;;;;13.93;8.90;;;;;;;15.61;64.00;99579.63;4344473;33;34125;-83
2023/05/04 02:15:15;;;;;;;13.60;9.70;;;;;;;15.57;64.35;99571.81;4331216;32;33211;-85
2023/05/04 02:17:42;;;;;;;10.20;8.13;;;;;;;15.34;65.47;99573.56;4343814;33;34015;-84
2023/05/04 02:20:11;;;;;;;13.85;10.23;;;;;;;15.40;65.46;99573.56;4320072;33;34583;-80
2023/05/04 02:22:41;;;;;;;11.48;8.88;;;;;;;15.00;67.05;99570.94;4343386;33;33708;-84
2023/05/04 02:25:08;;;;;;;13.77;9.85;;;;;;;15.12;66.60;99569.22;4344923;33;33397;-80
2023/05/04 02:27:36;;;;;;;11.55;9.85;;;;;;;15.25;66.30;99566.59;4343993;33;33078;-82
2023/05/04 02:30:04;;;;;;;10.98;8.50;;;;;;;15.25;66.68;99570.97;4344071;33;33769;-83
2023/05/04 02:32:32;;;;;;;10.02;8.23;;;;;;;15.39;65.93;99569.22;4345579;33;34251;-82
2023/05/04 02:34:59;;;;;;;10.75;8.75;;;;;;;15.45;65.06;99568.34;4317942;33;33638;-80
2023/05/04 02:37:28;;;;;;;10.60;8.00;;;;;;;15.48;64.53;99558.75;4344261;33;33549;-83
2023/05/04 02:39:55;;;;;;;10.40;8.60;;;;;;;15.66;63.50;99570.09;4330737;33;33655;-80
2023/05/04 02:42:23;;;;;;;12.80;10.50;;;;;;;15.36;64.00;99570.97;4345533;33;34285;-80
2023/05/04 02:44:50;;;;;;;14.87;12.15;;;;;;;15.15;65.18;99569.19;4345584;33;34333;-81
2023/05/04 02:47:19;;;;;;;16.10;12.80;;;;;;;14.89;66.94;99572.69;4344943;33;33990;-82
2023/05/04 02:49:46;;;;;;;15.07;12.50;;;;;;;14.84;67.42;99571.78;4344793;33;34212;-80
2023/05/04 02:52:14;;;;;;;17.15;12.20;;;;;;;14.92;67.37;99572.66;4344715;32;34683;-81
2023/05/04 02:54:42;;;;;;;12.55;10.80;;;;;;;14.83;67.95;99570.03;4346164;32;34315;-81
2023/05/04 02:57:09;;;;;;;15.98;12.13;;;;;;;14.97;67.32;99570.06;4344750;33;34769;-81
2023/05/04 02:59:38;;;;;;;15.73;11.93;;;;;;;14.88;67.47;99570.03;4345202;33;33974;-82
2023/05/04 03:02:05;;;;;;;14.30;10.35;;;;;;;14.87;67.29;99569.19;4344674;32;33964;-85
2023/05/04 03:04:33;;;;;;;13.43;11.57;;;;;;;14.69;67.69;99566.53;4344631;33;34124;-81
2023/05/04 03:07:01;;;;;;;12.90;11.15;;;;;;;14.80;66.52;99575.25;4345225;32;33986;-81
2023/05/04 03:09:28;;;;;;;12.25;10.57;;;;;;;14.87;66.10;99574.41;4342473;33;34898;-80
2023/05/04 03:11:56;;;;;;;12.68;10.07;;;;;;;15.06;65.31;99578.78;4330904;33;33015;-83
2023/05/04 03:14:24;;;;;;;12.55;10.60;;;;;;;15.06;64.89;99576.16;4332090;33;33555;-83
2023/05/04 03:16:51;;;;;;;12.77;10.35;;;;;;;15.11;64.73;99573.53;4344311;33;34190;-85
2023/05/04 03:19:20;;;;;;;14.43;11.30;;;;;;;15.13;64.67;99581.41;4344844;33;33974;-84
2023/05/04 03:21:48;;;;;;;13.80;10.85;;;;;;;15.03;64.83;99580.50;4344636;33;32495;-80
2023/05/04 03:24:18;;;;;;;12.73;10.15;;;;;;;15.16;64.24;99582.28;4345310;33;32643;-82
2023/05/04 03:26:46;;;;;;;13.35;11.63;;;;;;;15.16;63.99;99577.06;4344093;33;34680;-80
2023/05/04 03:29:14;;;;;;;13.52;11.20;;;;;;;14.89;65.30;99583.13;4330686;33;34901;-83
2023/05/04 03:31:42;;;;;;;16.80;13.27;;;;;;;15.00;64.81;99584.00;4330097;33;33965;-82
2023/05/04 03:34:11;;;;;;;14.13;11.43;;;;;;;14.76;65.90;99578.72;4330786;33;32982;-81
2023/05/04 03:36:39;;;;;;;13.50;11.32;;;;;;;14.93;65.32;99584.88;4330373;33;34053;-81
2023/05/04 03:39:07;;;;;;;14.20;11.65;;;;;;;15.01;65.13;99583.13;4320350;32;32340;-85
2023/05/04 03:41:35;;;;;;;15.80;12.37;;;;;;;14.80;66.02;99583.06;4343089;32;33872;-83
2023/05/04 03:44:03;;;;;;;15.52;13.02;;;;;;;14.72;66.84;99580.44;4344287;33;34425;-85
2023/05/04 03:46:30;;;;;;;17.98;13.77;;;;;;;15.06;65.80;99591.81;4344543;33;33620;-83
2023/05/04 03:48:58;;;;;;;16.15;13.30;;;;;;;14.69;67.18;99588.25;4343482;33;34840;-81
2023/05/04 03:51:26;;;;;;;18.67;15.77;;;;;;;14.57;68.40;99586.50;4330288;33;33763;-80
2023/05/04 03:53:53;;;;;;;19.83;15.45;;;;;;;13.76;71.88;99601.72;4344426;33;34465;-82
2023/05/04 03:56:21;;;;;;;19.20;15.38;;;;;;;14.12;71.09;99597.56;4344209;33;34705;-83
2023/05/04 03:58:49;;;;;;;19.73;15.20;;;;;;;13.96;71.95;99601.81;4344740;33;35203;-81
2023/05/04 04:01:18;;;;;;;21.73;15.80;;;;;;;13.73;73.06;99598.22;4348517;32;34657;-84
2023/05/04 04:03:46;;;;;;;18.83;15.55;;;;;;;14.04;72.17;99605.34;4343473;33;34483;-82
2023/05/04 04:06:14;;;;;;;22.37;16.75;;;;;;;14.00;72.43;99614.00;4344733;33;34675;-83
2023/05/04 04:08:42;;;;;;;18.17;15.18;;;;;;;13.92;72.87;99602.66;4331139;33;33967;-82
2023/05/04 04:11:09;;;;;;;18.98;15.05;;;;;;;14.29;71.70;99608.09;4331484;33;33989;-80
2023/05/04 04:13:37;;;;;;;18.83;14.55;;;;;;;14.58;70.19;99596.09;4343903;33;33616;-80
2023/05/04 04:16:05;;;;;;;20.85;16.35;;;;;;;13.56;74.24;99608.47;4343638;33;34711;-81
2023/05/04 04:18:33;;;;;;;20.80;16.08;;;;;;;13.69;74.00;99607.72;4344345;32;33613;-80
2023/05/04 04:21:00;;;;;;;18.83;16.58;;;;;;;14.23;72.11;99605.44;4342942;33;34561;-81
2023/05/04 04:23:28;;;;;;;23.85;17.23;;;;;;;13.66;74.58;99612.03;4330811;33;33431;-81
2023/05/04 04:25:55;;;;;;;20.90;16.92;;;;;;;13.91;73.81;99611.34;4344762;33;33808;-84
2023/05/04 04:28:23;;;;;;;20.83;17.20;;;;;;;13.70;75.34;99613.81;4344671;33;34223;-82
2023/05/04 04:30:50;;;;;;;21.75;17.62;;;;;;;13.90;74.67;99620.03;4344291;33;33602;-81
2023/05/04 04:33:18;;;;;;;19.55;16.65;;;;;;;13.81;75.07;99613.03;4344941;33;34219;-81
2023/05/04 04:35:46;;;;;;;17.17;14.35;;;;;;;14.35;72.89;99605.50;4344222;33;34352;-83
2023/05/04 04:38:13;;;;;;;16.85;14.15;;;;;;;14.55;72.13;99603.03;4344436;33;34277;-81
2023/05/04 04:40:41;;;;;;;17.05;14.30;;;;;;;14.73;71.19;99610.88;4344230;33;35106;-85
2023/05/04 04:43:10;;;;;;;18.30;14.13;;;;;;;14.81;70.94;99605.69;4344775;33;34550;-86
2023/05/04 04:45:40;;;;;;;17.48;13.90;;;;;;;14.76;70.98;99610.03;4344866;33;33548;-85
2023/05/04 04:48:07;;;;;;;19.25;15.00;;;;;;;14.73;71.17;99608.28;4332685;33;33882;-80
2023/05/04 04:50:38;;;;;;;16.50;13.68;;;;;;;14.74;71.20;99604.81;4346673;33;33810;-81
2023/05/04 04:53:05;;;;;;;16.80;13.90;;;;;;;14.98;70.21;99608.34;4333499;33;33500;-81
2023/05/04 04:55:33;;;;;;;16.15;13.30;;;;;;;14.74;70.55;99615.28;4346544;33;34320;-81
2023/05/04 04:58:01;;;;;;;17.92;13.15;;;;;;;14.78;70.42;99610.94;4346339;33;34159;-82
2023/05/04 05:00:28;;;;;;;15.10;11.50;;;;;;;15.00;69.60;99612.72;4333217;33;34826;-82
2023/05/04 05:02:56;;;;;;;14.35;11.98;;;;;;;14.89;69.54;99622.28;4345762;33;34132;-80
2023/05/04 05:05:23;;;;;;;14.87;11.43;;;;;;;15.01;69.31;99624.91;4344002;33;33150;-81
2023/05/04 05:07:51;;;;;;;13.32;10.82;;;;;;;14.88;70.30;99620.50;4332724;33;33942;-81
2023/05/04 05:10:22;;;;;;;19.17;9.98;;;;;;;15.01;69.73;99627.50;4346134;33;33914;-81
2023/05/04 05:12:50;;;;;;;12.23;9.70;;;;;;;15.17;68.67;99622.31;4333134;33;33586;-83
2023/05/04 05:15:17;;;;;;;10.40;8.45;;;;;;;15.11;68.87;99617.06;4345861;33;34805;-85
2023/05/04 05:17:45;;;;;;;10.48;8.35;;;;;;;15.22;68.70;99621.44;4345920;33;34287;-82
2023/05/04 05:20:14;;;;;;;10.48;7.40;;;;;;;15.49;67.50;99631.06;4345916;33;33726;-82
2023/05/04 05:22:41;;;;;;;11.57;7.40;;;;;;;15.51;67.10;99631.91;4346418;33;33643;-81
2023/05/04 05:25:09;;;;;;;9.15;7.40;;;;;;;15.74;66.03;99633.69;4346166;33;33581;-81
2023/05/04 05:27:37;;;;;;;8.77;5.82;;;;;;;15.58;67.30;99628.44;4346041;33;34189;-81
2023/05/04 05:30:05;;;;;;;8.82;5.53;;;;;;;15.87;64.75;99622.34;4345975;33;34845;-82
2023/05/04 05:32:33;;;;;;;7.40;5.45;;;;;;;15.73;63.49;99622.38;4345937;33;33749;-82
2023/05/04 05:35:01;;;;;;;7.95;5.60;;;;;;;15.59;63.32;99624.09;4346042;33;33770;-81
2023/05/04 05:37:29;;;;;;;6.80;4.90;;;;;;;15.82;62.75;99621.47;4332108;33;35946;-85
2023/05/04 05:39:58;;;;;;;7.22;5.00;;;;;;;15.80;61.43;99623.25;4345895;33;34079;-82
2023/05/04 05:42:28;;;;;;;6.80;4.85;;;;;;;16.07;61.07;99626.69;4346306;33;33779;-86
2023/05/04 05:44:56;;;;;;;6.78;4.97;;;;;;;16.25;60.18;99622.28;4333037;33;34038;-82
2023/05/04 05:47:24;;;;;;;7.30;5.40;;;;;;;15.99;59.94;99624.97;4346128;33;34028;-82
2023/05/04 05:49:52;;;;;;;6.80;4.05;;;;;;;16.18;58.61;99624.91;4345747;33;33992;-82
2023/05/04 05:52:19;;;;;;;6.03;3.78;;;;;;;16.25;57.27;99630.13;4346157;33;33659;-83
2023/05/04 05:54:47;;;;;;;6.15;3.80;;;;;;;16.42;55.14;99622.22;4345562;33;33956;-82
2023/05/04 05:57:15;;;;;;;6.85;4.15;;;;;;;16.29;56.52;99629.25;4345995;33;33985;-83
2023/05/04 05:59:43;;;;;;;5.55;3.30;;;;;;;16.59;56.51;99634.34;4345040;33;34019;-82
2023/05/04 06:02:13;;;;;;;5.82;3.40;;;;;;;16.62;54.84;99627.34;4345790;33;34058;-83
2023/05/04 06:04:42;;;;;;;6.50;3.58;;;;;;;17.00;54.59;99629.81;4345820;33;34921;-82
2023/05/04 06:07:09;;;;;;;6.03;3.47;;;;;;;17.28;52.65;99634.91;4331562;33;34251;-83
2023/05/04 06:09:37;;;;;;;6.87;3.53;;;;;;;17.22;52.48;99629.69;4346233;33;33639;-81
2023/05/04 06:12:06;;;;;;;5.65;3.53;;;;;;;17.36;52.72;99632.22;4346089;33;34364;-85
2023/05/04 06:14:33;;;;;;;7.50;3.05;;;;;;;17.61;53.45;99633.75;4345754;33;34066;-83
2023/05/04 06:17:00;;;;;;;6.10;3.62;;;;;;;17.91;50.76;99632.63;4345989;33;34775;-88
2023/05/04 06:19:28;;;;;;;5.03;2.95;;;;;;;17.83;51.69;99638.84;4345735;33;35365;-81
2023/05/04 06:21:57;;;;;;;3.75;2.15;;;;;;;17.89;49.92;99629.16;4345774;33;34083;-83
2023/05/04 06:24:25;;;;;;;5.30;2.67;;;;;;;18.09;50.24;99638.59;4345515;33;33477;-82
2023/05/04 06:26:54;;;;;;;5.32;2.90;;;;;;;18.06;49.82;99639.50;4345469;33;34203;-80
2023/05/04 06:29:21;;;;;;;5.78;3.08;;;;;;;18.32;50.49;99636.59;4345161;33;33652;-81
2023/05/04 06:31:49;;;;;;;5.62;2.20;;;;;;;18.11;48.96;99639.47;4345534;33;32949;-81
2023/05/04 06:34:16;;;;;;;4.93;2.58;;;;;;;17.92;48.08;99638.78;4345646;33;34193;-81
2023/05/04 06:36:44;;;;;;;4.75;2.40;;;;;;;17.63;49.19;99644.25;4344100;33;34114;-80
2023/05/04 06:39:11;;;;;;;4.22;2.10;;;;;;;17.68;48.49;99645.06;4332471;33;34438;-81
2023/05/04 06:41:39;;;;;;;4.10;2.33;;;;;;;17.99;48.30;99645.69;4345884;33;34871;-79
2023/05/04 06:44:07;;;;;;;4.82;2.47;;;;;;;17.43;47.89;99647.03;4345146;33;34839;-80
2023/05/04 06:46:38;;;;;;;4.22;2.25;;;;;;;17.67;47.76;99651.19;4345946;33;34238;-83
2023/05/04 06:49:05;;;;;;;4.25;2.60;;;;;;;17.58;47.75;99648.63;4345593;33;33759;-82
2023/05/04 06:51:36;;;;;;;4.18;2.40;;;;;;;17.68;47.63;99645.06;4344861;33;33135;-83
2023/05/04 06:54:04;;;;;;;6.07;2.80;;;;;;;17.47;48.15;99646.97;4345836;33;34499;-86
2023/05/04 06:56:31;;;;;;;7.43;2.67;;;;;;;17.22;47.84;99645.41;4345965;33;34369;-83
2023/05/04 06:58:59;;;;;;;6.18;2.90;;;;;;;17.54;47.09;99652.16;4345889;33;33292;-83
2023/05/04 07:01:26;;;;;;;4.70;2.55;;;;;;;17.84;47.78;99649.34;4343980;33;34421;-83
2023/05/04 07:03:57;;;;;;;6.82;3.20;;;;;;;18.32;47.24;99652.34;4332108;33;34680;-83
2023/05/04 07:06:26;;;;;;;4.68;2.47;;;;;;;17.38;48.65;99654.91;4345895;33;34264;-82
2023/05/04 07:08:53;;;;;;;5.00;2.60;;;;;;;17.38;47.95;99657.50;4345461;33;33918;-83
2023/05/04 07:11:21;;;;;;;6.07;2.75;;;;;;;18.44;49.23;99649.56;4345744;33;34543;-83
2023/05/04 07:13:48;;;;;;;5.12;2.80;;;;;;;18.52;47.33;99641.59;4345671;33;34006;-83
2023/05/04 07:16:16;;;;;;;4.85;2.70;;;;;;;18.83;46.45;99646.53;4345457;33;33684;-83
2023/05/04 07:37:45;;;;;;;5.35;2.72;;;;;;;19.75;43.76;99651.31;4635639;27;20409;-89
2023/05/04 07:40:13;;;;;;;6.00;2.70;;;;;;;19.83;43.54;99641.50;4360327;32;34657;-89
2023/05/04 07:42:41;;;;;;;5.07;2.42;;;;;;;19.92;43.49;99646.59;4360274;32;34323;-89
2023/05/04 07:45:09;;;;;;;7.18;3.30;;;;;;;19.15;45.48;99660.09;4360172;32;33279;-89
2023/05/04 07:47:37;;;;;;;5.28;3.12;;;;;;;19.80;43.38;99648.59;4360030;32;33483;-89
2023/05/04 07:50:04;;;;;;;5.70;2.80;;;;;;;19.91;43.42;99651.91;4360371;32;33821;-89
2023/05/04 07:52:32;;;;;;;5.30;2.53;;;;;;;20.02;43.31;99638.56;4360181;32;33885;-89
2023/05/04 07:55:00;;;;;;;5.65;2.55;;;;;;;19.23;45.54;99645.97;4360419;32;33433;-90
2023/05/04 07:57:27;;;;;;;5.22;2.78;;;;;;;19.20;45.61;99652.13;4360244;32;34771;-89
2023/05/04 07:59:55;;;;;;;5.10;2.75;;;;;;;19.65;44.06;99647.94;4360050;32;33819;-89
2023/05/04 08:02:22;;;;;;;5.85;3.17;;;;;;;19.90;45.04;99651.03;4360036;32;34904;-89
2023/05/04 08:04:50;;;;;;;5.57;2.90;;;;;;;20.14;42.99;99646.22;4360587;32;33274;-90
2023/05/04 08:07:19;;;;;;;6.68;2.90;;;;;;;20.30;43.47;99645.03;4360406;32;34693;-89
2023/05/04 08:09:46;;;;;;;5.35;3.00;;;;;;;19.22;43.95;99650.34;4360362;32;35062;-90
2023/05/04 08:12:14;;;;;;;7.62;3.20;;;;;;;19.37;44.58;99644.88;4359985;32;33797;-93
2023/05/04 08:14:45;;;;;;;4.50;2.78;;;;;;;19.62;43.64;99649.75;4359741;32;33489;-89
2023/05/04 08:17:13;;;;;;;5.50;3.28;;;;;;;19.73;44.62;99641.69;4346243;32;33957;-89
2023/05/04 08:19:40;;;;;;;5.72;2.90;;;;;;;20.52;43.78;99649.91;4359899;32;34129;-89
2023/05/04 08:22:08;;;;;;;8.48;3.10;;;;;;;20.61;43.31;99655.88;4360772;32;33812;-92
2023/05/04 08:24:35;;;;;;;5.57;2.67;;;;;;;19.56;44.06;99649.84;4361560;32;34178;-88
2023/05/04 08:27:03;;;;;;;4.32;2.58;;;;;;;20.42;43.47;99657.13;4348134;32;33741;-89
2023/05/04 08:29:36;;;;;;;6.00;3.12;;;;;;;20.84;42.38;99654.53;4348646;32;33754;-88
2023/05/04 08:32:04;;;;;;;4.93;2.70;;;;;;;20.61;42.52;99663.78;4361548;32;34001;-89
2023/05/04 08:34:32;;;;;;;6.25;2.92;;;;;;;20.99;42.25;99658.63;4361486;32;33619;-88
2023/05/04 08:37:01;;;;;;;6.97;3.33;;;;;;;20.54;42.35;99658.69;4361302;32;34794;-92
2023/05/04 08:39:29;;;;;;;5.25;3.10;;;;;;;20.14;43.08;99667.28;4361854;32;34125;-89
2023/05/04 08:41:56;;;;;;;8.43;3.30;;;;;;;20.40;42.26;99669.44;4336108;32;33158;-89
2023/05/04 08:44:24;;;;;;;5.62;3.17;;;;;;;20.46;42.78;99663.19;4361624;32;34345;-89
2023/05/04 08:46:52;;;;;;;6.20;3.15;;;;;;;21.11;42.76;99658.34;4361595;32;34666;-89
2023/05/04 08:49:21;;;;;;;5.90;3.62;;;;;;;20.61;42.62;99660.28;4348029;32;34769;-89
2023/05/04 08:51:49;;;;;;;5.30;2.97;;;;;;;21.38;41.97;99657.72;4348003;32;34028;-89
2023/05/04 08:54:17;;;;;;;9.55;3.42;;;;;;;21.61;42.01;99661.59;4341860;32;32474;-89
2023/05/04 08:56:45;;;;;;;6.00;2.83;;;;;;;21.19;42.00;99658.16;4361621;32;34013;-89
2023/05/04 08:59:20;;;;;;;4.62;2.70;;;;;;;22.02;42.13;99657.06;4361236;32;34246;-88
2023/05/04 09:01:50;;;;;;;5.35;2.70;;;;;;;21.92;41.79;99653.78;4361441;32;33597;-89
2023/05/04 09:04:19;;;;;;;4.62;2.80;;;;;;;22.06;40.87;99656.06;4347940;32;33307;-89
2023/05/04 09:06:47;;;;;;;6.97;3.20;;;;;;;21.78;40.28;99656.78;4361485;32;34234;-89
2023/05/04 09:09:15;;;;;;;6.22;3.00;;;;;;;22.26;41.63;99645.84;4348251;32;35039;-89
2023/05/04 09:11:42;;;;;;;6.35;3.10;;;;;;;21.42;42.44;99655.03;4347993;32;33048;-89
2023/05/04 09:14:10;;;;;;;6.82;3.60;;;;;;;21.48;40.87;99654.88;4361294;32;33203;-89
2023/05/04 09:16:37;;;;;;;7.47;3.17;;;;;;;21.79;41.70;99660.28;4361049;32;34709;-89
2023/05/04 09:19:16;;;;;;;5.85;3.28;;;;;;;22.11;39.93;99657.66;4361369;32;34929;-89
2023/05/04 09:21:45;;;;;;;5.53;3.37;;;;;;;21.87;40.63;99650.41;4361358;32;34306;-89
2023/05/04 09:24:13;;;;;;;6.70;3.87;;;;;;;21.83;42.23;99652.25;4361210;32;32796;-90
2023/05/04 09:26:40;;;;;;;8.35;3.67;;;;;;;21.36;43.19;99659.53;4349538;32;33910;-89
2023/05/04 09:29:12;;;;;;;6.30;3.80;;;;;;;21.90;41.39;99652.09;4362782;32;34027;-88
2023/05/04 09:31:51;;;;;;;8.40;3.80;;;;;;;21.67;42.24;99656.19;4347817;32;34628;-88
2023/05/04 09:34:20;;;;;;;8.93;3.67;;;;;;;21.53;42.66;99656.50;4347897;32;34390;-88
2023/05/04 09:37:01;;;;;;;6.03;3.28;;;;;;;21.44;42.30;99658.47;4347556;32;34743;-89
2023/05/04 09:39:29;;;;;;;7.55;3.45;;;;;;;21.45;41.24;99654.97;4361405;32;33779;-88
2023/05/04 09:41:56;;;;;;;8.15;3.47;;;;;;;21.01;42.37;99652.38;4347559;32;35057;-89
2023/05/04 09:44:24;;;;;;;6.87;3.87;;;;;;;20.88;42.65;99649.16;4361036;32;33472;-93
2023/05/04 09:46:58;;;;;;;6.05;4.00;;;;;;;20.76;43.76;99654.72;4361143;32;34760;-90
2023/05/04 09:49:37;;;;;;;6.80;3.65;;;;;;;21.12;43.52;99638.97;4347487;32;34004;-91
2023/05/04 09:52:05;;;;;;;10.63;3.90;;;;;;;21.68;42.08;99638.56;4347694;32;33941;-89
2023/05/04 09:54:34;;;;;;;5.37;3.10;;;;;;;21.86;41.24;99640.75;4347436;32;33006;-89
2023/05/04 09:57:13;;;;;;;5.57;3.17;;;;;;;22.10;42.25;99633.94;4360802;32;34326;-89
2023/05/04 09:59:41;;;;;;;5.00;3.00;;;;;;;22.02;39.79;99641.22;4347641;32;34198;-89
2023/05/04 10:02:11;;;;;;;7.30;3.80;;;;;;;22.21;40.11;99634.56;4360907;32;34622;-89
2023/05/04 10:04:51;;;;;;;6.85;3.30;;;;;;;22.13;41.47;99633.88;4349306;32;33528;-89
2023/05/04 10:07:19;;;;;;;6.47;4.22;;;;;;;22.14;41.08;99625.06;4347298;32;33843;-89
2023/05/04 10:09:47;;;;;;;7.65;5.22;;;;;;;20.64;45.61;99632.09;4348205;32;33757;-88
2023/05/04 10:12:15;;;;;;;8.95;6.03;;;;;;;20.66;46.50;99632.06;4347467;32;33894;-89
2023/05/04 10:14:45;;;;;;;7.85;5.32;;;;;;;20.84;46.40;99631.69;4360875;32;33800;-89
2023/05/04 10:17:19;;;;;;;8.93;5.43;;;;;;;21.02;46.98;99621.63;4360981;32;33293;-89
2023/05/04 10:20:18;;;;;;;8.27;5.10;;;;;;;21.14;45.23;99626.63;4360759;32;34884;-89
2023/05/04 10:22:51;;;;;;;10.20;5.10;;;;;;;21.45;43.97;99623.31;4361019;32;33718;-90
2023/05/04 10:25:47;;;;;;;8.57;5.05;;;;;;;21.56;43.94;99619.50;4360917;32;33146;-89
2023/05/04 10:28:28;;;;;;;7.70;5.93;;;;;;;21.38;45.43;99618.16;4361006;32;33993;-90
2023/05/04 10:30:57;;;;;;;11.63;6.80;;;;;;;20.61;46.72;99612.87;4360794;32;34071;-89
2023/05/04 10:33:25;;;;;;;11.18;5.90;;;;;;;20.93;46.46;99617.44;4347203;32;33254;-89
2023/05/04 10:35:53;;;;;;;8.75;6.05;;;;;;;21.35;45.65;99610.31;4347313;32;33265;-89
2023/05/04 10:38:32;;;;;;;8.95;5.50;;;;;;;21.67;43.54;99613.97;4360608;32;33982;-89
2023/05/04 10:40:59;;;;;;;8.90;5.80;;;;;;;21.98;43.76;99599.97;4360343;32;34162;-89
2023/05/04 10:43:31;;;;;;;7.97;4.68;;;;;;;21.89;44.58;99608.97;4347195;32;33571;-91
2023/05/04 10:46:00;;;;;;;7.75;5.07;;;;;;;21.99;43.17;99604.31;4360408;32;34298;-89
2023/05/04 10:48:33;;;;;;;10.07;5.50;;;;;;;22.27;43.41;99607.97;4347426;32;34637;-89
2023/05/04 10:51:01;;;;;;;7.87;5.10;;;;;;;21.22;44.57;99600.09;4360614;32;34004;-89
2023/05/04 10:53:32;;;;;;;8.57;5.40;;;;;;;21.52;43.23;99604.66;4360387;32;33937;-89
2023/05/04 10:56:00;;;;;;;7.97;5.15;;;;;;;21.46;42.79;99603.94;4347075;32;33290;-89
2023/05/04 10:58:27;;;;;;;9.10;5.15;;;;;;;21.72;42.80;99598.88;4360607;32;34947;-89
2023/05/04 11:00:55;;;;;;;6.30;4.40;;;;;;;21.64;43.46;99594.69;4346902;32;34960;-90
2023/05/04 11:03:23;;;;;;;8.23;4.85;;;;;;;21.55;43.61;99590.50;4347259;32;33736;-89
2023/05/04 11:05:53;;;;;;;7.50;4.40;;;;;;;21.36;42.17;99593.59;4360577;32;33462;-89
2023/05/04 11:08:23;;;;;;;8.13;4.97;;;;;;;21.94;41.15;99579.84;4360433;32;34880;-89
2023/05/04 11:11:02;;;;;;;6.28;4.53;;;;;;;22.00;42.79;99584.94;4346982;32;34636;-89
2023/05/04 11:13:32;;;;;;;6.75;4.47;;;;;;;22.08;42.23;99573.25;4347274;32;33609;-89
2023/05/04 11:16:00;;;;;;;8.10;5.20;;;;;;;22.20;42.23;99574.72;4360610;32;33249;-89
2023/05/04 11:18:33;;;;;;;7.25;4.47;;;;;;;22.45;38.70;99566.09;4346672;32;34289;-92
2023/05/04 11:21:01;;;;;;;6.80;4.37;;;;;;;22.71;40.36;99563.53;4360385;32;33567;-88
2023/05/04 11:23:29;;;;;;;9.88;4.70;;;;;;;23.13;39.01;99560.50;4346983;32;34372;-88
2023/05/04 11:25:57;;;;;;;7.37;4.12;;;;;;;22.77;40.30;99558.06;4360412;32;33756;-89
2023/05/04 11:28:35;;;;;;;8.02;4.07;;;;;;;22.97;39.99;99548.69;4346969;32;33643;-88
2023/05/04 11:31:15;;;;;;;6.82;3.60;;;;;;;22.71;39.00;99558.25;4346737;32;33824;-91
2023/05/04 11:33:45;;;;;;;6.30;3.97;;;;;;;22.87;40.71;99553.34;4334487;32;33411;-89
2023/05/04 11:36:12;;;;;;;8.13;4.15;;;;;;;23.15;39.61;99552.53;4360200;32;33799;-89
2023/05/04 11:38:40;;;;;;;7.03;4.45;;;;;;;22.64;41.09;99551.41;4334251;32;33241;-89
2023/05/04 11:41:08;;;;;;;10.43;6.70;;;;;;;21.83;44.21;99551.94;4322679;32;34348;-89
2023/05/04 11:43:36;;;;;;;11.65;6.80;;;;;;;21.69;44.84;99561.13;4334577;32;32249;-90
2023/05/04 11:46:05;;;;;;;11.40;5.57;;;;;;;21.43;44.93;99559.16;4334367;32;33406;-89
2023/05/04 11:48:34;;;;;;;11.10;6.87;;;;;;;21.32;45.75;99565.53;4334504;32;32711;-89
2023/05/04 11:51:02;;;;;;;10.05;6.70;;;;;;;21.37;45.70;99557.56;4334491;32;33886;-89
2023/05/04 11:53:37;;;;;;;8.23;6.18;;;;;;;21.51;45.09;99562.47;4322050;32;32004;-89